createdAt,value
2019-01-11T00:00:37.086Z,100004.42
2019-01-11T00:02:38.045Z,100003.67
2019-01-11T00:04:40.749Z,100003.14
2019-01-11T00:06:41.738Z,100004.66
2019-01-11T00:08:42.816Z,100007.23
2019-01-11T00:10:44.218Z,100011.61
2019-01-11T00:12:45.354Z,100012.13
2019-01-11T00:14:46.400Z,100016.67
2019-01-11T00:16:47.416Z,100020.76
2019-01-11T00:18:48.644Z,100023.89
2019-01-11T00:20:49.647Z,100021.62
2019-01-11T00:22:51.066Z,100019.89
2019-01-11T00:24:52.083Z,100019.20
2019-01-11T00:26:54.221Z,100016.93
2019-01-11T00:28:55.212Z,100012.23
2019-01-11T00:30:56.153Z,100017.61
2019-01-11T00:32:58.898Z,100011.38
2019-01-11T00:35:00.092Z,100005.97
2019-01-11T00:37:02.116Z,100009.97
2019-01-11T00:39:06.026Z,100007.72
2019-01-11T00:41:07.205Z,100008.94
2019-01-11T00:43:14.871Z,100007.88
2019-01-11T00:45:11.403Z,100006.52
2019-01-11T00:47:13.413Z,100003.05
2019-01-11T00:49:31.176Z,100001.16
2019-01-11T00:51:34.337Z,100000.37
2019-01-11T00:53:35.680Z,100001.05
2019-01-11T00:55:36.713Z,99999.70
2019-01-11T00:57:39.071Z,99997.36
2019-01-11T00:59:44.639Z,99998.02
2019-01-11T01:03:03.408Z,99994.09
2019-01-11T01:04:28.868Z,99991.97
2019-01-11T01:06:30.060Z,99991.82
2019-01-11T01:08:30.807Z,99992.97
2019-01-11T01:10:32.758Z,99990.41
2019-01-11T01:12:33.493Z,99992.66
2019-01-11T01:15:33.190Z,99985.47
2019-01-11T01:17:15.152Z,99993.09
2019-01-11T01:19:20.105Z,99994.89
2019-01-11T01:21:21.724Z,99990.36
2019-01-11T01:26:10.180Z,99985.09
2019-01-11T01:28:11.578Z,99985.70
2019-01-11T01:30:14.978Z,99984.64
2019-01-11T01:32:15.800Z,99979.36
2019-01-11T01:34:17.858Z,99981.40
2019-01-11T01:36:20.379Z,99978.90
2019-01-11T01:38:21.268Z,99979.57
2019-01-11T01:40:22.382Z,99979.05
2019-01-11T01:42:23.790Z,99973.47
2019-01-11T01:44:24.732Z,99970.35
2019-01-11T01:46:28.142Z,99972.47
2019-01-11T01:48:28.873Z,99970.05
2019-01-11T01:50:32.310Z,99967.04
2019-01-11T01:52:33.321Z,99966.51
2019-01-11T01:54:35.859Z,99956.98
2019-01-11T01:56:39.492Z,99954.09
2019-01-11T01:58:43.581Z,99956.75
2019-01-11T02:00:48.064Z,99956.91
2019-01-11T02:03:28.030Z,99958.86
2019-01-11T02:05:27.758Z,99959.76
2019-01-11T02:07:30.104Z,99959.53
2019-01-11T02:09:31.434Z,99951.30
2019-01-11T02:11:32.404Z,99950.03
2019-01-11T02:13:37.797Z,99954.94
2019-01-11T02:15:54.475Z,99958.95
2019-01-11T02:18:06.443Z,99962.41
2019-01-11T02:20:16.818Z,99958.47
2019-01-11T02:22:17.911Z,99955.52
2019-01-11T02:24:31.788Z,99960.22
2019-01-11T02:26:33.778Z,99954.42
2019-01-11T02:28:34.640Z,99958.05
2019-01-11T02:30:36.281Z,99960.38
2019-01-11T02:32:52.931Z,99962.13
2019-01-11T02:37:30.639Z,99953.88
2019-01-11T02:39:39.132Z,99954.64
2019-01-11T02:41:40.312Z,99950.48
2019-01-11T02:43:47.482Z,99947.98
2019-01-11T02:45:52.508Z,99948.06
2019-01-11T02:47:53.850Z,99944.72
2019-01-11T02:49:55.211Z,99947.06
2019-01-11T02:52:00.895Z,99933.31
2019-01-11T02:54:23.925Z,99938.30
2019-01-11T02:56:24.788Z,99931.25
2019-01-11T02:58:25.653Z,99930.66
2019-01-11T03:00:48.147Z,99926.48
2019-01-11T03:02:53.211Z,99926.70
2019-01-11T03:05:06.993Z,99924.00
2019-01-11T03:07:09.920Z,99920.08
2019-01-11T03:09:10.979Z,99922.12
2019-01-11T03:11:13.359Z,99921.59
2019-01-11T03:13:17.523Z,99919.47
2019-01-11T03:15:21.457Z,99920.38
2019-01-11T03:17:24.268Z,99921.90
2019-01-11T03:19:25.921Z,99920.06
2019-01-11T03:21:48.032Z,99914.17
2019-01-11T03:23:46.431Z,99921.05
2019-01-11T03:25:47.562Z,99917.57
2019-01-11T03:27:48.614Z,99914.25
2019-01-11T03:29:49.605Z,99918.34
2019-01-11T03:32:00.217Z,99917.67
2019-01-11T03:34:22.477Z,99912.91
2019-01-11T03:36:23.277Z,99919.25
2019-01-11T03:38:23.983Z,99919.25
2019-01-11T03:40:25.104Z,99917.67
2019-01-11T03:42:26.325Z,99917.07
2019-01-11T03:44:27.426Z,99915.64
2019-01-11T03:46:28.412Z,99912.92
2019-01-11T03:48:29.239Z,99909.89
2019-01-11T03:50:29.937Z,99916.24
2019-01-11T03:52:30.642Z,99910.27
2019-01-11T03:54:31.855Z,99907.70
2019-01-11T03:56:32.740Z,99911.70
2019-01-11T03:58:33.602Z,99911.85
2019-01-11T04:00:34.700Z,99905.88
2019-01-11T04:02:35.938Z,99903.61
2019-01-11T04:04:36.648Z,99908.67
2019-01-11T04:06:37.650Z,99900.50
2019-01-11T04:08:38.518Z,99899.67
2019-01-11T04:10:39.165Z,99908.38
2019-01-11T04:12:40.223Z,99903.47
2019-01-11T04:14:41.166Z,99902.78
2019-01-11T04:16:42.165Z,99909.73
2019-01-11T04:18:43.287Z,99900.20
2019-01-11T04:20:44.239Z,99903.69
2019-01-11T04:22:45.546Z,99897.95
2019-01-11T04:24:49.678Z,99889.33
2019-01-11T04:26:50.779Z,99901.03
2019-01-11T04:28:51.800Z,99900.05
2019-01-11T04:30:52.902Z,99896.27
2019-01-11T04:32:53.888Z,99897.94
2019-01-11T04:34:54.600Z,99891.67
2019-01-11T04:36:56.518Z,99893.78
2019-01-11T04:38:57.168Z,99890.97
2019-01-11T04:40:58.330Z,99891.59
2019-01-11T04:42:59.037Z,99891.59
2019-01-11T04:45:00.005Z,99889.55
2019-01-11T04:47:12.960Z,99888.64
2019-01-11T04:49:13.884Z,99889.09
2019-01-11T04:51:14.872Z,99887.28
2019-01-11T04:53:15.904Z,99892.13
2019-01-11T04:55:16.873Z,99889.39
2019-01-11T04:57:17.508Z,99883.66
2019-01-11T04:59:18.297Z,99884.94
2019-01-11T05:01:19.027Z,99884.56
2019-01-11T05:03:19.839Z,99886.82
2019-01-11T05:05:20.721Z,99880.31
2019-01-11T05:07:21.446Z,99879.27
2019-01-11T05:09:22.717Z,99880.85
2019-01-11T05:11:23.759Z,99879.16
2019-01-11T05:13:26.220Z,99875.25
2019-01-11T05:15:27.029Z,99874.74
2019-01-11T05:17:27.956Z,99869.73
2019-01-11T05:19:28.885Z,99871.02
2019-01-11T05:21:29.887Z,99868.61
2019-01-11T05:23:30.689Z,99870.44
2019-01-11T05:25:31.617Z,99874.20
2019-01-11T05:27:33.981Z,99874.05
2019-01-11T05:29:35.147Z,99873.67
2019-01-11T05:31:35.944Z,99874.88
2019-01-11T05:33:36.587Z,99877.47
2019-01-11T05:35:37.325Z,99868.39
2019-01-11T05:37:38.069Z,99865.67
2019-01-11T05:39:38.833Z,99861.75
2019-01-11T05:41:39.871Z,99865.83
2019-01-11T05:43:40.664Z,99858.78
2019-01-11T05:45:41.408Z,99860.15
2019-01-11T05:47:42.062Z,99856.89
2019-01-11T05:49:42.795Z,99859.62
2019-01-11T05:51:43.687Z,99859.08
2019-01-11T05:53:44.387Z,99855.68
2019-01-11T05:55:45.220Z,99851.61
2019-01-11T05:57:45.893Z,99848.80
2019-01-11T05:59:46.582Z,99848.42
2019-01-11T06:01:47.462Z,99844.67
2019-01-11T06:03:48.116Z,99847.33
2019-01-11T06:05:49.027Z,99847.48
2019-01-11T06:07:49.727Z,99845.41
2019-01-11T06:09:50.829Z,99841.89
2019-01-11T06:11:51.489Z,99841.48
2019-01-11T06:13:52.252Z,99853.05
2019-01-11T06:15:53.022Z,99841.72
2019-01-11T06:17:53.713Z,99844.50
2019-01-11T06:19:54.720Z,99842.55
2019-01-11T06:21:55.466Z,99838.99
2019-01-11T06:23:56.215Z,99841.05
2019-01-11T06:25:57.266Z,99834.30
2019-01-11T06:27:58.006Z,99834.09
2019-01-11T06:29:58.813Z,99837.03
2019-01-11T06:31:59.589Z,99834.55
2019-01-11T06:34:00.476Z,99832.94
2019-01-11T06:36:01.429Z,99827.75
2019-01-11T06:38:02.246Z,99827.80
2019-01-11T06:40:06.725Z,99826.84
2019-01-11T06:42:07.530Z,99827.96
2019-01-11T06:44:08.251Z,99827.88
2019-01-11T06:46:09.567Z,99825.19
2019-01-11T06:48:10.252Z,99820.42
2019-01-11T06:50:13.642Z,99815.12
2019-01-11T06:52:14.718Z,99820.64
2019-01-11T06:54:15.421Z,99818.81
2019-01-11T06:56:16.170Z,99819.48
2019-01-11T06:58:16.782Z,99813.59
2019-01-11T07:00:17.608Z,99814.72
2019-01-11T07:02:18.369Z,99814.27
2019-01-11T07:04:20.080Z,99816.91
2019-01-11T07:06:20.765Z,99816.13
2019-01-11T07:08:21.499Z,99812.44
2019-01-11T07:10:22.292Z,99812.81
2019-01-11T07:12:23.024Z,99811.16
2019-01-11T07:14:23.762Z,99809.25
2019-01-11T07:16:24.507Z,99806.06
2019-01-11T07:18:25.198Z,99807.10
2019-01-11T07:20:26.019Z,99812.62
2019-01-11T07:22:26.912Z,99798.89
2019-01-11T07:24:27.619Z,99802.58
2019-01-11T07:26:28.401Z,99800.84
2019-01-11T07:28:29.088Z,99800.55
2019-01-11T07:30:29.856Z,99793.20
2019-01-11T07:32:30.684Z,99803.70
2019-01-11T07:34:31.389Z,99801.67
2019-01-11T07:36:33.144Z,99799.09
2019-01-11T07:38:33.816Z,99796.82
2019-01-11T07:40:34.514Z,99798.40
2019-01-11T07:42:36.115Z,99798.19
2019-01-11T07:44:36.796Z,99800.67
2019-01-11T07:46:37.415Z,99801.80
2019-01-11T07:48:39.035Z,99793.46
2019-01-11T07:50:39.808Z,99799.35
2019-01-11T07:52:40.489Z,99801.30
2019-01-11T07:54:41.263Z,99801.09
2019-01-11T07:56:41.944Z,99801.76
2019-01-11T07:58:42.558Z,99796.53
2019-01-11T08:00:44.522Z,99799.77
2019-01-11T08:02:45.476Z,99798.56
2019-01-11T08:04:46.112Z,99789.77
2019-01-11T08:06:46.890Z,99793.34
2019-01-11T08:08:47.662Z,99790.06
2019-01-11T08:10:48.353Z,99797.32
2019-01-11T08:12:49.032Z,99799.27
2019-01-11T08:14:49.806Z,99800.80
2019-01-11T08:16:50.486Z,99808.64
2019-01-11T08:18:51.464Z,99800.50
2019-01-11T08:20:56.195Z,99799.64
2019-01-11T08:22:55.180Z,99801.30
2019-01-11T08:24:56.096Z,99795.62
2019-01-11T08:26:56.852Z,99803.99
2019-01-11T08:28:57.781Z,99800.96
2019-01-11T08:30:58.467Z,99795.62
2019-01-11T08:32:59.476Z,99787.07
2019-01-11T08:35:00.269Z,99786.98
2019-01-11T08:37:01.207Z,99781.09
2019-01-11T08:39:05.446Z,99783.12
2019-01-11T08:41:06.068Z,99788.27
2019-01-11T08:43:06.793Z,99792.30
2019-01-11T08:45:10.759Z,99790.84
2019-01-11T08:47:11.734Z,99793.70
2019-01-11T08:49:12.684Z,99793.08
2019-01-11T08:51:14.680Z,99790.13
2019-01-11T08:53:15.658Z,99787.27
2019-01-11T08:55:16.616Z,99790.59
2019-01-11T08:57:17.353Z,99790.88
2019-01-11T08:59:18.002Z,99791.08
2019-01-11T09:01:18.660Z,99799.25
2019-01-11T09:03:19.285Z,99789.88
2019-01-11T09:05:19.912Z,99777.64
2019-01-11T09:07:20.659Z,99784.24
2019-01-11T09:09:23.393Z,99780.92
2019-01-11T09:11:24.033Z,99782.13
2019-01-11T09:13:26.727Z,99790.30
2019-01-11T09:15:27.743Z,99789.02
2019-01-11T09:17:30.424Z,99793.05
2019-01-11T09:19:31.070Z,99794.25
2019-01-11T09:21:31.801Z,99791.95
2019-01-11T09:23:33.426Z,99798.59
2019-01-11T09:25:34.065Z,99796.02
2019-01-11T09:27:35.770Z,99794.73
2019-01-11T09:29:36.380Z,99802.45
2019-01-11T09:31:39.022Z,99803.37
2019-01-11T09:33:39.771Z,99804.69
2019-01-11T09:35:42.328Z,99804.60
2019-01-11T09:37:43.069Z,99805.14
2019-01-11T09:39:43.800Z,99800.45
2019-01-11T09:41:45.412Z,99803.03
2019-01-11T09:43:47.080Z,99803.06
2019-01-11T09:45:47.747Z,99797.38
2019-01-11T09:47:48.472Z,99804.06
2019-01-11T09:49:49.167Z,99803.72
2019-01-11T09:51:55.627Z,99799.41
2019-01-11T09:53:57.304Z,99799.58
2019-01-11T09:55:58.071Z,99803.27
2019-01-11T09:57:58.808Z,99801.69
2019-01-11T09:59:59.434Z,99805.66
2019-01-11T10:02:00.168Z,99802.55
2019-01-11T10:04:02.145Z,99796.31
2019-01-11T10:06:06.027Z,99798.23
2019-01-11T10:08:08.133Z,99793.17
2019-01-11T10:10:10.500Z,99789.40
2019-01-11T10:12:12.175Z,99797.58
2019-01-11T10:14:12.909Z,99797.58
2019-01-11T10:16:14.614Z,99794.45
2019-01-11T10:18:16.340Z,99792.74
2019-01-11T10:20:17.036Z,99792.17
2019-01-11T10:22:17.761Z,99791.25
2019-01-11T10:24:24.578Z,99783.80
2019-01-11T10:26:26.525Z,99781.50
2019-01-11T10:28:27.307Z,99784.34
2019-01-11T10:30:37.533Z,99791.89
2019-01-11T10:32:38.366Z,99787.85
2019-01-11T10:34:48.381Z,99789.08
2019-01-11T10:36:50.019Z,99785.83
2019-01-11T10:38:51.697Z,99782.79
2019-01-11T10:40:52.825Z,99781.70
2019-01-11T10:42:54.531Z,99773.44
2019-01-11T10:44:56.237Z,99770.03
2019-01-11T10:46:57.903Z,99759.38
2019-01-11T10:49:00.588Z,99763.78
2019-01-11T10:51:01.309Z,99760.11
2019-01-11T10:53:02.102Z,99758.37
2019-01-11T10:55:05.891Z,99761.40
2019-01-11T10:57:06.752Z,99756.36
2019-01-11T10:59:07.440Z,99750.95
2019-01-11T11:01:08.341Z,99746.55
2019-01-11T11:03:09.024Z,99746.37
2019-01-11T11:05:10.945Z,99752.45
2019-01-11T11:07:11.680Z,99749.22
2019-01-11T11:09:12.560Z,99744.00
2019-01-11T11:11:16.563Z,99744.56
2019-01-11T11:13:15.855Z,99745.28
2019-01-11T11:15:17.307Z,99740.78
2019-01-11T11:17:17.979Z,99733.10
2019-01-11T11:19:18.770Z,99736.56
2019-01-11T11:21:19.399Z,99736.33
2019-01-11T11:23:20.194Z,99734.91
2019-01-11T11:25:21.378Z,99733.10
2019-01-11T11:27:22.064Z,99733.02
2019-01-11T11:29:23.047Z,99732.09
2019-01-11T11:31:23.978Z,99735.77
2019-01-11T11:33:24.640Z,99732.38
2019-01-11T11:35:25.598Z,99735.69
2019-01-11T11:37:26.284Z,99731.83
2019-01-11T11:39:27.069Z,99732.66
2019-01-11T11:41:27.721Z,99735.60
2019-01-11T11:43:28.656Z,99730.45
2019-01-11T11:45:30.072Z,99731.83
2019-01-11T11:47:30.794Z,99732.02
2019-01-11T11:49:31.532Z,99733.22
2019-01-11T11:51:32.265Z,99726.77
2019-01-11T11:53:32.934Z,99723.45
2019-01-11T11:55:33.621Z,99723.92
2019-01-11T11:57:34.674Z,99711.59
2019-01-11T11:59:35.335Z,99713.89
2019-01-11T12:01:36.113Z,99714.44
2019-01-11T12:03:37.690Z,99708.92
2019-01-11T12:05:38.628Z,99713.89
2019-01-11T12:07:39.305Z,99710.75
2019-01-11T12:09:40.221Z,99715.82
2019-01-11T12:11:40.950Z,99712.97
2019-01-11T12:13:41.836Z,99712.59
2019-01-11T12:15:42.604Z,99709.83
2019-01-11T12:17:43.376Z,99701.83
2019-01-11T12:19:44.332Z,99705.32
2019-01-11T12:21:47.769Z,99704.49
2019-01-11T12:23:47.763Z,99702.10
2019-01-11T12:25:48.652Z,99700.91
2019-01-11T12:27:49.668Z,99697.31
2019-01-11T12:29:50.662Z,99693.63
2019-01-11T12:31:51.595Z,99692.72
2019-01-11T12:33:52.285Z,99694.09
2019-01-11T12:35:53.284Z,99697.77
2019-01-11T12:37:53.948Z,99692.34
2019-01-11T12:39:54.707Z,99687.19
2019-01-11T12:41:55.468Z,99698.70
2019-01-11T12:43:56.140Z,99690.41
2019-01-11T12:45:56.867Z,99691.59
2019-01-11T12:47:57.646Z,99688.83
2019-01-11T12:49:58.605Z,99690.86
2019-01-11T12:51:59.481Z,99684.05
2019-01-11T12:54:00.247Z,99680.37
2019-01-11T12:56:00.917Z,99682.97
2019-01-11T12:58:01.907Z,99682.59
2019-01-11T13:00:06.297Z,99677.89
2019-01-11T13:02:07.378Z,99675.69
2019-01-11T13:04:08.064Z,99670.91
2019-01-11T13:06:08.970Z,99660.69
2019-01-11T13:08:09.955Z,99652.77
2019-01-11T13:10:13.927Z,99652.03
2019-01-11T13:12:14.694Z,99653.49
2019-01-11T13:14:15.403Z,99649.61
2019-01-11T13:16:16.134Z,99638.86
2019-01-11T13:18:16.894Z,99641.97
2019-01-11T13:20:18.581Z,99638.57
2019-01-11T13:22:19.241Z,99639.20
2019-01-11T13:24:20.248Z,99636.90
2019-01-11T13:26:20.887Z,99633.56
2019-01-11T13:28:21.845Z,99628.06
2019-01-11T13:30:23.612Z,99626.97
2019-01-11T13:32:24.567Z,99629.16
2019-01-11T13:34:25.486Z,99626.22
2019-01-11T13:36:26.229Z,99628.97
2019-01-11T13:38:27.171Z,99627.87
2019-01-11T13:40:28.235Z,99628.99
2019-01-11T13:42:28.939Z,99632.11
2019-01-11T13:44:29.899Z,99636.90
2019-01-11T13:46:30.812Z,99640.95
2019-01-11T13:48:31.535Z,99634.87
2019-01-11T13:50:34.226Z,99641.59
2019-01-11T13:52:34.900Z,99636.70
2019-01-11T13:54:35.860Z,99633.01
2019-01-11T13:56:36.787Z,99635.69
2019-01-11T13:58:37.558Z,99636.88
2019-01-11T14:00:38.159Z,99631.52
2019-01-11T14:02:38.885Z,99642.56
2019-01-11T14:04:39.618Z,99639.89
2019-01-11T14:06:40.505Z,99639.97
2019-01-11T14:08:41.384Z,99645.02
2019-01-11T14:10:42.110Z,99643.83
2019-01-11T14:12:43.095Z,99645.85
2019-01-11T14:14:44.024Z,99650.05
2019-01-11T14:16:44.994Z,99645.27
2019-01-11T14:18:46.002Z,99639.18
2019-01-11T14:20:46.702Z,99641.03
2019-01-11T14:22:48.690Z,99643.52
2019-01-11T14:24:49.325Z,99649.79
2019-01-11T14:26:50.249Z,99650.98
2019-01-11T14:28:50.965Z,99646.36
2019-01-11T14:30:51.924Z,99651.52
2019-01-11T14:32:52.552Z,99643.14
2019-01-11T14:34:53.218Z,99648.77
2019-01-11T14:36:55.438Z,99648.97
2019-01-11T14:38:57.373Z,99643.78
2019-01-11T14:40:58.308Z,99642.02
2019-01-11T14:42:59.332Z,99646.91
2019-01-11T14:45:00.321Z,99646.45
2019-01-11T14:47:01.234Z,99643.87
2019-01-11T14:49:02.225Z,99638.81
2019-01-11T14:51:03.042Z,99641.03
2019-01-11T14:53:03.945Z,99639.02
2019-01-11T14:55:04.868Z,99639.02
2019-01-11T14:57:05.831Z,99638.45
2019-01-11T14:59:06.510Z,99631.55
2019-01-11T15:01:07.384Z,99625.19
2019-01-11T15:03:14.233Z,99625.82
2019-01-11T15:05:15.813Z,99626.75
2019-01-11T15:07:19.760Z,99621.69
2019-01-11T15:09:26.781Z,99620.03
2019-01-11T15:11:29.511Z,99626.84
2019-01-11T15:13:31.233Z,99617.55
2019-01-11T15:15:37.774Z,99616.53
2019-01-11T15:17:39.487Z,99616.06
2019-01-11T15:19:40.255Z,99610.34
2019-01-11T15:21:41.190Z,99606.48
2019-01-11T15:23:42.123Z,99611.91
2019-01-11T15:25:43.101Z,99609.69
2019-01-11T15:27:43.775Z,99608.20
2019-01-11T15:29:44.483Z,99609.39
2019-01-11T15:31:45.238Z,99607.23
2019-01-11T15:33:46.174Z,99609.61
2019-01-11T15:35:46.866Z,99604.16
2019-01-11T15:37:47.880Z,99604.16
2019-01-11T15:39:49.609Z,99601.27
2019-01-11T15:41:50.293Z,99612.02
2019-01-11T15:43:51.297Z,99602.14
2019-01-11T15:45:55.752Z,99601.02
2019-01-11T15:47:56.448Z,99607.27
2019-01-11T15:49:57.449Z,99605.09
2019-01-11T15:51:59.161Z,99604.42
2019-01-11T15:54:00.035Z,99603.14
2019-01-11T15:56:00.799Z,99606.23
2019-01-11T15:58:01.731Z,99604.58
2019-01-11T16:00:06.173Z,99610.83
2019-01-11T16:02:07.143Z,99608.20
2019-01-11T16:04:09.065Z,99607.16
2019-01-11T16:06:16.753Z,99598.39
2019-01-11T16:08:17.428Z,99607.89
2019-01-11T16:10:18.960Z,99609.02
2019-01-11T16:12:19.973Z,99602.26
2019-01-11T16:14:36.518Z,99606.39
2019-01-11T16:16:38.481Z,99606.59
2019-01-11T16:18:39.205Z,99609.44
2019-01-11T16:20:40.989Z,99605.20
2019-01-11T16:22:41.970Z,99612.02
2019-01-11T16:24:42.822Z,99608.61
2019-01-11T16:26:43.642Z,99602.52
2019-01-11T16:28:44.665Z,99606.03
2019-01-11T16:30:45.584Z,99615.99
2019-01-11T16:32:47.576Z,99615.27
2019-01-11T16:34:48.571Z,99613.62
2019-01-11T16:36:49.262Z,99607.22
2019-01-11T16:38:50.113Z,99605.46
2019-01-11T16:40:51.046Z,99606.19
2019-01-11T16:42:52.007Z,99601.23
2019-01-11T16:44:52.729Z,99599.37
2019-01-11T16:46:53.683Z,99600.66
2019-01-11T16:48:54.579Z,99599.00
2019-01-11T16:50:55.326Z,99599.00
2019-01-11T16:52:57.298Z,99597.14
2019-01-11T16:54:58.984Z,99603.75
2019-01-11T16:57:00.004Z,99602.56
2019-01-11T16:59:00.686Z,99605.05
2019-01-11T17:01:01.541Z,99601.38
2019-01-11T17:03:02.458Z,99602.41
2019-01-11T17:05:04.720Z,99607.06
2019-01-11T17:07:08.379Z,99603.03
2019-01-11T17:09:09.389Z,99602.72
2019-01-11T17:11:11.083Z,99613.05
2019-01-11T17:13:12.034Z,99622.75
2019-01-11T17:15:15.384Z,99619.02
2019-01-11T17:17:16.049Z,99620.67
2019-01-11T17:19:16.753Z,99613.64
2019-01-11T17:21:17.548Z,99615.87
2019-01-11T17:23:18.237Z,99619.22
2019-01-11T17:25:19.057Z,99612.14
2019-01-11T17:27:20.027Z,99609.92
2019-01-11T17:29:20.628Z,99614.36
2019-01-11T17:31:21.343Z,99612.50
2019-01-11T17:33:22.308Z,99604.17
2019-01-11T17:35:23.160Z,99602.31
2019-01-11T17:37:23.869Z,99605.62
2019-01-11T17:39:24.870Z,99604.47
2019-01-11T17:41:25.764Z,99600.34
2019-01-11T17:43:26.452Z,99606.84
2019-01-11T17:45:27.100Z,99609.06
2019-01-11T17:47:27.915Z,99604.62
2019-01-11T17:49:29.111Z,99603.51
2019-01-11T17:51:29.943Z,99597.27
2019-01-11T17:53:31.017Z,99599.02
2019-01-11T17:55:31.992Z,99609.75
2019-01-11T17:57:32.996Z,99599.63
2019-01-11T17:59:33.609Z,99604.58
2019-01-11T18:01:34.263Z,99606.56
2019-01-11T18:03:35.025Z,99596.94
2019-01-11T18:05:35.954Z,99603.33
2019-01-11T18:07:36.697Z,99608.71
2019-01-11T18:09:37.436Z,99605.66
2019-01-11T18:11:38.387Z,99607.20
2019-01-11T18:13:39.309Z,99606.99
2019-01-11T18:15:40.290Z,99608.17
2019-01-11T18:17:42.150Z,99609.11
2019-01-11T18:19:42.918Z,99609.36
2019-01-11T18:21:43.667Z,99605.13
2019-01-11T18:23:44.351Z,99609.28
2019-01-11T18:25:45.065Z,99607.91
2019-01-11T18:27:45.823Z,99608.80
2019-01-11T18:29:46.522Z,99613.39
2019-01-11T18:31:47.400Z,99611.85
2019-01-11T18:33:49.161Z,99614.69
2019-01-11T18:35:54.103Z,99615.41
2019-01-11T18:38:02.922Z,99617.77
2019-01-11T18:40:13.914Z,99613.67
2019-01-11T18:42:14.809Z,99609.79
2019-01-11T18:44:15.753Z,99604.17
2019-01-11T18:46:16.479Z,99610.64
2019-01-11T18:48:17.405Z,99606.19
2019-01-11T18:50:22.000Z,99601.48
2019-01-11T18:52:22.993Z,99594.90
2019-01-11T18:54:23.889Z,99591.98
2019-01-11T18:56:24.590Z,99591.87
2019-01-11T18:58:25.541Z,99588.34
2019-01-11T19:00:35.295Z,99582.94
2019-01-11T19:02:49.232Z,99588.70
2019-01-11T19:04:52.105Z,99591.87
2019-01-11T19:06:54.027Z,99592.22
2019-01-11T19:08:55.116Z,99589.97
2019-01-11T19:10:55.914Z,99589.39
2019-01-11T19:12:56.641Z,99584.00
2019-01-11T19:14:57.482Z,99590.22
2019-01-11T19:16:58.264Z,99592.58
2019-01-11T19:18:59.565Z,99587.77
2019-01-11T19:21:00.477Z,99588.14
2019-01-11T19:23:02.940Z,99591.91
2019-01-11T19:25:07.116Z,99592.27
2019-01-11T19:27:10.612Z,99589.79
2019-01-11T19:29:14.758Z,99588.52
2019-01-11T19:31:15.305Z,99594.76
2019-01-11T19:33:17.009Z,99589.94
2019-01-11T19:35:19.335Z,99592.30
2019-01-11T19:37:22.435Z,99594.20
2019-01-11T19:39:25.236Z,99597.86
2019-01-11T19:41:30.190Z,99593.27
2019-01-11T19:43:35.409Z,99591.98
2019-01-11T19:45:42.670Z,99601.16
2019-01-11T19:47:45.708Z,99598.22
2019-01-11T19:49:50.413Z,99601.05
2019-01-11T19:51:51.308Z,99590.09
2019-01-11T19:53:52.164Z,99591.75
2019-01-11T19:55:59.010Z,99593.05
2019-01-11T19:58:00.131Z,99600.00
2019-01-11T20:00:01.286Z,99600.84
2019-01-11T20:02:03.177Z,99596.95
2019-01-11T20:04:04.217Z,99598.48
2019-01-11T20:06:05.129Z,99604.27
2019-01-11T20:08:07.427Z,99596.84
2019-01-11T20:10:11.909Z,99603.20
2019-01-11T20:12:12.820Z,99597.69
2019-01-11T20:14:13.521Z,99602.28
2019-01-11T20:16:14.336Z,99594.05
2019-01-11T20:18:15.128Z,99603.59
2019-01-11T20:20:16.021Z,99594.88
2019-01-11T20:22:24.566Z,99601.36
2019-01-11T20:24:26.560Z,99600.30
2019-01-11T20:26:28.487Z,99597.51
2019-01-11T20:28:34.169Z,99605.40
2019-01-11T20:30:34.863Z,99601.39
2019-01-11T20:32:35.565Z,99607.16
2019-01-11T20:34:36.312Z,99609.05
2019-01-11T20:36:40.764Z,99610.09
2019-01-11T20:38:41.455Z,99602.20
2019-01-11T20:40:42.167Z,99603.63
2019-01-11T20:42:42.933Z,99606.68
2019-01-11T20:44:43.935Z,99604.79
2019-01-11T20:46:44.675Z,99608.68
2019-01-11T20:48:45.590Z,99611.16
2019-01-11T20:50:46.568Z,99603.49
2019-01-11T20:52:47.353Z,99610.56
2019-01-11T20:54:48.041Z,99609.61
2019-01-11T20:56:48.721Z,99608.43
2019-01-11T20:58:49.384Z,99605.73
2019-01-11T21:00:50.399Z,99611.73
2019-01-11T21:02:51.221Z,99612.44
2019-01-11T21:04:52.070Z,99608.92
2019-01-11T21:06:53.150Z,99615.87
2019-01-11T21:08:53.941Z,99613.29
2019-01-11T21:10:59.694Z,99617.53
2019-01-11T21:13:00.592Z,99615.18
2019-01-11T21:15:01.812Z,99612.94
2019-01-11T21:17:02.812Z,99612.94
2019-01-11T21:19:03.945Z,99618.24
2019-01-11T21:21:04.604Z,99612.11
2019-01-11T21:23:05.472Z,99615.88
2019-01-11T21:25:08.738Z,99613.17
2019-01-11T21:27:09.769Z,99615.30
2019-01-11T21:29:10.468Z,99607.87
2019-01-11T21:31:11.676Z,99610.58
2019-01-11T21:33:12.584Z,99608.93
2019-01-11T21:35:13.383Z,99608.34
2019-01-11T21:37:14.154Z,99609.88
2019-01-11T21:39:15.040Z,99612.47
2019-01-11T21:41:15.782Z,99609.38
2019-01-11T21:43:17.560Z,99608.92
2019-01-11T21:45:18.430Z,99615.05
2019-01-11T21:47:19.060Z,99609.98
2019-01-11T21:49:20.008Z,99619.05
2019-01-11T21:51:21.053Z,99615.73
2019-01-11T21:53:21.883Z,99618.91
2019-01-11T21:55:23.126Z,99617.72
2019-01-11T21:57:25.133Z,99617.14
2019-01-11T21:59:25.968Z,99613.14
2019-01-11T22:01:26.660Z,99617.14
2019-01-11T22:03:27.554Z,99611.36
2019-01-11T22:05:28.310Z,99623.41
2019-01-11T22:07:29.121Z,99620.11
2019-01-11T22:09:29.830Z,99623.28
2019-01-11T22:11:30.480Z,99622.92
2019-01-11T22:13:31.201Z,99626.22
2019-01-11T22:15:32.113Z,99629.53
2019-01-11T22:17:32.743Z,99628.11
2019-01-11T22:19:35.478Z,99633.90
2019-01-11T22:21:38.943Z,99632.02
2019-01-11T22:23:40.003Z,99631.66
2019-01-11T22:25:40.687Z,99633.90
2019-01-11T22:27:41.378Z,99635.42
2019-01-11T22:29:43.032Z,99633.55
2019-01-11T22:31:43.902Z,99630.00
2019-01-11T22:33:46.742Z,99636.25
2019-01-11T22:35:47.422Z,99635.91
2019-01-11T22:37:49.578Z,99642.73
2019-01-11T22:39:50.527Z,99642.86
2019-01-11T22:41:53.652Z,99638.97
2019-01-11T22:43:55.590Z,99641.21
2019-01-11T22:45:56.629Z,99641.92
2019-01-11T22:47:57.340Z,99637.80
2019-01-11T22:49:59.403Z,99638.26
2019-01-11T22:52:00.186Z,99637.80
2019-01-11T22:54:10.034Z,99643.45
2019-01-11T22:56:07.297Z,99639.20
2019-01-11T22:58:08.973Z,99635.08
2019-01-11T23:00:32.867Z,99636.25
2019-01-11T23:02:35.515Z,99635.19
2019-01-11T23:04:36.351Z,99634.70
2019-01-11T23:06:43.778Z,99645.20
2019-01-11T23:08:55.177Z,99641.30
2019-01-11T23:11:25.941Z,99641.80
2019-01-11T23:13:26.615Z,99641.80
2019-01-11T23:15:27.731Z,99629.07
2019-01-11T23:17:32.397Z,99638.27
2019-01-11T23:19:33.157Z,99645.80
2019-01-11T23:21:33.931Z,99650.28
2019-01-11T23:23:34.544Z,99644.28
2019-01-11T23:25:35.451Z,99648.52
2019-01-11T23:27:36.187Z,99648.40
2019-01-11T23:29:36.811Z,99656.53
2019-01-11T23:31:37.682Z,99655.94
2019-01-11T23:33:38.417Z,99653.47
2019-01-11T23:35:39.321Z,99660.88
2019-01-11T23:37:40.268Z,99656.41
2019-01-11T23:39:41.243Z,99659.59
2019-01-11T23:41:42.351Z,99654.52
2019-01-11T23:43:42.999Z,99659.23
2019-01-11T23:45:43.691Z,99655.35
2019-01-11T23:47:44.393Z,99655.83
2019-01-11T23:49:45.368Z,99656.17
2019-01-11T23:51:46.317Z,99658.30
2019-01-11T23:53:47.207Z,99655.47
2019-01-11T23:55:47.909Z,99654.06